createdAt,value
2018-05-07T00:01:53.603Z,73.70
2018-05-07T00:03:54.570Z,73.70
2018-05-07T00:05:55.571Z,73.80
2018-05-07T00:07:56.898Z,74.00
2018-05-07T00:09:57.837Z,74.00
2018-05-07T00:11:59.437Z,74.30
2018-05-07T00:14:00.873Z,74.50
2018-05-07T00:16:01.885Z,74.80
2018-05-07T00:18:03.330Z,74.50
2018-05-07T00:20:04.838Z,74.50
2018-05-07T00:22:06.832Z,74.70
2018-05-07T00:24:08.722Z,74.80
2018-05-07T00:26:09.857Z,74.70
2018-05-07T00:28:11.140Z,74.90
2018-05-07T00:30:13.152Z,75.00
2018-05-07T00:32:15.122Z,74.90
2018-05-07T00:34:16.301Z,75.00
2018-05-07T00:36:17.289Z,75.00
2018-05-07T00:38:18.270Z,75.10
2018-05-07T00:40:20.124Z,75.20
2018-05-07T00:42:21.166Z,75.20
2018-05-07T00:44:22.641Z,75.30
2018-05-07T00:46:24.362Z,75.20
2018-05-07T00:48:25.506Z,75.30
2018-05-07T00:50:26.646Z,75.60
2018-05-07T00:52:27.593Z,75.90
2018-05-07T00:54:28.898Z,75.70
2018-05-07T00:56:30.078Z,75.70
2018-05-07T00:58:31.038Z,75.50
2018-05-07T01:00:31.997Z,75.50
2018-05-07T01:02:33.926Z,75.50
2018-05-07T01:04:34.905Z,75.50
2018-05-07T01:06:35.859Z,75.50
2018-05-07T01:08:36.858Z,75.80
2018-05-07T01:10:38.179Z,76.10
2018-05-07T01:12:39.169Z,76.10
2018-05-07T01:14:40.469Z,75.80
2018-05-07T01:16:41.816Z,75.60
2018-05-07T01:18:43.150Z,75.50
2018-05-07T01:20:44.106Z,75.50
2018-05-07T01:22:45.064Z,75.80
2018-05-07T01:24:46.021Z,75.80
2018-05-07T01:26:46.991Z,75.60
2018-05-07T01:28:48.302Z,76.50
2018-05-07T01:30:49.258Z,76.50
2018-05-07T01:32:50.211Z,76.70
2018-05-07T01:34:51.558Z,78.30
2018-05-07T01:36:52.918Z,78.70
2018-05-07T01:38:53.872Z,78.70
2018-05-07T01:40:55.102Z,78.80
2018-05-07T01:42:56.047Z,78.90
2018-05-07T01:44:57.026Z,79.10
2018-05-07T01:46:57.980Z,78.90
2018-05-07T01:48:59.298Z,78.70
2018-05-07T01:51:00.273Z,78.60
2018-05-07T01:53:01.242Z,78.70
2018-05-07T01:55:02.209Z,78.50
2018-05-07T01:57:03.545Z,78.40
2018-05-07T01:59:04.583Z,78.40
2018-05-07T02:01:05.539Z,78.30
2018-05-07T02:03:07.186Z,78.20
2018-05-07T02:05:08.531Z,78.00
2018-05-07T02:07:09.957Z,78.00
2018-05-07T02:09:10.905Z,78.00
2018-05-07T02:11:12.238Z,77.40
2018-05-07T02:13:13.607Z,77.60
2018-05-07T02:15:14.651Z,77.60
2018-05-07T02:17:15.606Z,77.60
2018-05-07T02:19:16.546Z,77.20
2018-05-07T02:21:17.499Z,77.10
2018-05-07T02:23:18.463Z,77.40
2018-05-07T02:25:19.778Z,77.20
2018-05-07T02:27:20.734Z,77.20
2018-05-07T02:29:22.074Z,77.10
2018-05-07T02:31:23.806Z,77.20
2018-05-07T02:33:24.926Z,77.20
2018-05-07T02:35:25.865Z,77.10
2018-05-07T02:37:26.816Z,76.90
2018-05-07T02:39:27.774Z,76.90
2018-05-07T02:41:29.094Z,77.30
2018-05-07T02:43:30.057Z,77.50
2018-05-07T02:45:31.399Z,77.10
2018-05-07T02:47:32.726Z,77.30
2018-05-07T02:49:33.679Z,77.30
2018-05-07T02:51:35.007Z,77.20
2018-05-07T02:53:36.332Z,77.50
2018-05-07T02:55:37.278Z,77.30
2018-05-07T02:57:38.252Z,77.50
2018-05-07T02:59:39.221Z,77.50
2018-05-07T03:01:40.183Z,77.70
2018-05-07T03:03:41.302Z,77.50
2018-05-07T03:05:42.246Z,77.70
2018-05-07T03:07:43.186Z,77.90
2018-05-07T03:09:44.147Z,77.70
2018-05-07T03:11:45.185Z,77.70
2018-05-07T03:13:46.038Z,77.80
2018-05-07T03:15:47.022Z,77.90
2018-05-07T03:17:47.966Z,78.00
2018-05-07T03:19:49.298Z,78.00
2018-05-07T03:21:50.258Z,78.00
2018-05-07T03:23:51.918Z,77.90
2018-05-07T03:25:52.955Z,77.90
2018-05-07T03:27:53.898Z,77.90
2018-05-07T03:29:54.855Z,77.70
2018-05-07T03:31:55.945Z,77.90
2018-05-07T03:33:57.250Z,77.90
2018-05-07T03:35:58.201Z,77.90
2018-05-07T03:37:59.154Z,77.70
2018-05-07T03:40:00.469Z,77.90
2018-05-07T03:42:01.451Z,78.00
2018-05-07T03:44:02.403Z,77.90
2018-05-07T03:46:03.354Z,77.90
2018-05-07T03:48:04.640Z,77.80
2018-05-07T03:50:05.964Z,77.70
2018-05-07T03:52:06.906Z,77.70
2018-05-07T03:54:07.854Z,77.70
2018-05-07T03:56:08.789Z,77.80
2018-05-07T03:58:10.097Z,77.90
2018-05-07T04:00:11.596Z,77.90
2018-05-07T04:02:12.562Z,77.80
2018-05-07T04:04:14.079Z,77.60
2018-05-07T04:06:16.190Z,78.00
2018-05-07T04:08:17.157Z,78.00
2018-05-07T04:10:18.598Z,77.70
2018-05-07T04:12:19.992Z,77.90
2018-05-07T04:14:20.937Z,77.90
2018-05-07T04:16:34.367Z,77.80
2018-05-07T04:18:48.026Z,77.80
2018-05-07T04:21:01.647Z,77.70
2018-05-07T04:23:15.059Z,77.70
2018-05-07T04:25:16.097Z,77.80
2018-05-07T04:27:17.046Z,77.70
2018-05-07T04:29:17.977Z,77.90
2018-05-07T04:31:18.918Z,77.30
2018-05-07T04:33:20.306Z,76.50
2018-05-07T04:35:21.270Z,76.50
2018-05-07T04:37:22.210Z,76.40
2018-05-07T04:39:23.554Z,76.70
2018-05-07T04:41:24.501Z,76.90
2018-05-07T04:43:25.438Z,77.00
2018-05-07T04:45:26.386Z,76.70
2018-05-07T04:47:27.725Z,76.80
2018-05-07T04:49:29.038Z,76.70
2018-05-07T04:51:29.977Z,76.70
2018-05-07T04:53:30.944Z,76.60
2018-05-07T04:55:32.288Z,76.00
2018-05-07T04:57:33.690Z,75.30
2018-05-07T04:59:34.655Z,75.30
2018-05-07T05:01:36.019Z,75.50
2018-05-07T05:03:37.172Z,75.50
2018-05-07T05:05:38.261Z,75.40
2018-05-07T05:07:39.706Z,75.10
2018-05-07T05:09:40.698Z,75.00
2018-05-07T05:11:41.819Z,74.90
2018-05-07T05:13:42.761Z,74.50
2018-05-07T05:15:43.698Z,74.20
2018-05-07T05:17:44.673Z,74.40
2018-05-07T05:19:45.640Z,74.60
2018-05-07T05:21:46.975Z,74.90
2018-05-07T05:23:48.314Z,74.60
2018-05-07T05:25:49.638Z,74.30
2018-05-07T05:27:50.602Z,74.30
2018-05-07T05:29:51.946Z,74.20
2018-05-07T05:31:53.266Z,74.10
2018-05-07T05:33:54.225Z,74.10
2018-05-07T05:35:55.578Z,73.50
2018-05-07T05:37:56.639Z,73.50
2018-05-07T05:39:57.985Z,73.30
2018-05-07T05:41:58.953Z,73.70
2018-05-07T05:43:59.897Z,73.70
2018-05-07T05:46:00.850Z,73.60
2018-05-07T05:48:02.222Z,73.80
2018-05-07T05:50:03.571Z,73.80
2018-05-07T05:52:04.397Z,73.40
2018-05-07T05:54:05.339Z,73.40
2018-05-07T05:56:06.372Z,73.30
2018-05-07T05:58:07.262Z,73.50
2018-05-07T06:00:08.590Z,72.50
2018-05-07T06:02:09.544Z,72.50
2018-05-07T06:04:10.985Z,71.90
2018-05-07T06:06:12.317Z,72.00
2018-05-07T06:08:13.649Z,72.20
2018-05-07T06:10:14.621Z,72.20
2018-05-07T06:12:15.554Z,71.30
2018-05-07T06:14:16.551Z,72.10
2018-05-07T06:16:17.512Z,71.30
2018-05-07T06:18:18.852Z,70.70
2018-05-07T06:20:20.274Z,69.60
2018-05-07T06:22:21.226Z,69.60
2018-05-07T06:24:22.702Z,68.40
2018-05-07T06:26:23.662Z,68.40
2018-05-07T06:28:25.062Z,69.00
2018-05-07T06:30:26.405Z,69.60
2018-05-07T06:32:27.714Z,69.90
2018-05-07T06:34:29.233Z,69.90
2018-05-07T06:36:30.102Z,68.70
2018-05-07T06:38:31.046Z,67.90
2018-05-07T06:40:32.510Z,67.80
2018-05-07T06:42:33.837Z,66.80
2018-05-07T06:44:35.145Z,66.80
2018-05-07T06:46:36.109Z,66.80
2018-05-07T06:48:37.114Z,67.20
2018-05-07T06:50:38.056Z,67.10
2018-05-07T06:52:39.015Z,66.20
2018-05-07T06:54:39.966Z,67.10
2018-05-07T06:56:41.280Z,65.60
2018-05-07T06:58:42.239Z,65.60
2018-05-07T07:00:43.588Z,64.60
2018-05-07T07:02:44.670Z,64.60
2018-05-07T07:04:45.475Z,65.00
2018-05-07T07:06:46.654Z,63.90
2018-05-07T07:08:47.623Z,64.60
2018-05-07T07:10:48.942Z,63.10
2018-05-07T07:12:49.911Z,63.20
2018-05-07T07:14:50.867Z,62.70
2018-05-07T07:16:51.822Z,63.20
2018-05-07T07:18:52.770Z,63.10
2018-05-07T07:20:53.718Z,63.30
2018-05-07T07:22:54.655Z,64.00
2018-05-07T07:24:55.631Z,62.60
2018-05-07T07:26:56.634Z,61.50
2018-05-07T07:28:57.515Z,61.40
2018-05-07T07:30:58.477Z,60.60
2018-05-07T07:32:59.442Z,60.60
2018-05-07T07:35:00.745Z,59.70
2018-05-07T07:37:01.703Z,59.70
2018-05-07T07:39:03.043Z,59.70
2018-05-07T07:41:03.982Z,59.70
2018-05-07T07:43:05.215Z,59.10
2018-05-07T07:45:06.186Z,56.70
2018-05-07T07:47:07.276Z,57.70
2018-05-07T07:49:08.531Z,56.10
2018-05-07T07:51:09.747Z,56.10
2018-05-07T07:53:10.708Z,55.50
2018-05-07T07:55:12.046Z,55.60
2018-05-07T07:57:13.267Z,55.60
2018-05-07T07:59:14.221Z,53.90
2018-05-07T08:01:15.166Z,53.70
2018-05-07T08:03:16.498Z,52.00
2018-05-07T08:05:17.480Z,52.00
2018-05-07T08:07:18.424Z,53.20
2018-05-07T08:09:19.394Z,53.60
2018-05-07T08:11:20.349Z,52.60
2018-05-07T08:13:21.683Z,53.40
2018-05-07T08:15:22.621Z,53.40
2018-05-07T08:17:23.570Z,51.20
2018-05-07T08:19:24.559Z,50.10
2018-05-07T08:21:25.532Z,51.30
2018-05-07T08:23:26.999Z,51.30
2018-05-07T08:25:27.955Z,51.30
2018-05-07T08:27:28.903Z,51.60
2018-05-07T08:29:29.849Z,50.50
2018-05-07T08:31:30.802Z,49.20
2018-05-07T08:33:31.748Z,49.80
2018-05-07T08:35:33.077Z,49.50
2018-05-07T08:37:34.069Z,49.50
2018-05-07T08:39:35.030Z,50.40
2018-05-07T08:41:35.971Z,50.10
2018-05-07T08:43:36.955Z,47.70
2018-05-07T08:45:37.909Z,48.50
2018-05-07T08:47:38.849Z,48.00
2018-05-07T08:49:39.793Z,49.00
2018-05-07T08:51:40.752Z,48.70
2018-05-07T08:53:41.682Z,49.10
2018-05-07T08:55:42.638Z,48.20
2018-05-07T08:57:44.245Z,48.10
2018-05-07T08:59:45.208Z,48.10
2018-05-07T09:01:46.155Z,47.60
2018-05-07T09:03:47.476Z,47.10
2018-05-07T09:05:48.497Z,47.10
2018-05-07T09:07:49.453Z,48.30
2018-05-07T09:09:50.766Z,48.80
2018-05-07T09:11:51.731Z,48.90
2018-05-07T09:13:53.092Z,47.00
2018-05-07T09:15:54.441Z,47.50
2018-05-07T09:17:55.382Z,47.50
2018-05-07T09:19:56.445Z,48.20
2018-05-07T09:21:57.405Z,47.40
2018-05-07T09:23:58.353Z,47.30
2018-05-07T09:25:59.304Z,47.10
2018-05-07T09:28:00.682Z,47.40
2018-05-07T09:30:01.635Z,47.40
2018-05-07T09:32:02.578Z,46.50
2018-05-07T09:34:03.561Z,48.30
2018-05-07T09:36:04.511Z,47.90
2018-05-07T09:38:05.461Z,47.40
2018-05-07T09:40:06.430Z,47.10
2018-05-07T09:42:07.391Z,47.20
2018-05-07T09:44:08.709Z,45.60
2018-05-07T09:46:09.664Z,45.60
2018-05-07T09:48:10.975Z,45.20
2018-05-07T09:50:11.917Z,45.20
2018-05-07T09:52:12.873Z,45.10
2018-05-07T09:54:14.185Z,46.70
2018-05-07T09:56:15.138Z,46.50
2018-05-07T09:58:17.190Z,45.00
2018-05-07T10:00:18.302Z,45.10
2018-05-07T10:02:19.233Z,45.70
2018-05-07T10:04:20.165Z,45.90
2018-05-07T10:06:21.735Z,46.00
2018-05-07T10:08:22.678Z,45.70
2018-05-07T10:10:23.637Z,46.00
2018-05-07T10:12:24.598Z,44.10
2018-05-07T10:14:25.574Z,42.90
2018-05-07T10:16:26.510Z,43.20
2018-05-07T10:18:27.445Z,43.70
2018-05-07T10:20:28.391Z,44.90
2018-05-07T10:22:29.706Z,43.80
2018-05-07T10:24:30.649Z,43.70
2018-05-07T10:26:31.584Z,44.40
2018-05-07T10:28:32.554Z,42.80
2018-05-07T10:30:33.490Z,43.60
2018-05-07T10:32:34.440Z,43.00
2018-05-07T10:34:35.398Z,44.00
2018-05-07T10:36:36.325Z,42.60
2018-05-07T10:38:37.259Z,44.80
2018-05-07T10:40:38.211Z,43.40
2018-05-07T10:42:39.237Z,43.40
2018-05-07T10:44:40.095Z,42.10
2018-05-07T10:46:41.051Z,42.00
2018-05-07T10:48:42.363Z,40.60
2018-05-07T10:50:43.313Z,40.50
2018-05-07T10:52:44.674Z,40.00
2018-05-07T10:54:45.982Z,40.10
2018-05-07T10:56:47.818Z,40.10
2018-05-07T10:58:48.789Z,40.50
2018-05-07T11:00:50.098Z,39.60
2018-05-07T11:02:51.065Z,39.60
2018-05-07T11:04:52.281Z,39.40
2018-05-07T11:06:53.228Z,39.90
2018-05-07T11:08:54.168Z,39.40
2018-05-07T11:10:55.121Z,38.20
2018-05-07T11:12:56.562Z,38.70
2018-05-07T11:14:57.873Z,38.50
2018-05-07T11:16:58.923Z,38.60
2018-05-07T11:18:59.880Z,38.70
2018-05-07T11:21:01.195Z,38.00
2018-05-07T11:23:02.425Z,38.00
2018-05-07T11:25:03.387Z,36.00
2018-05-07T11:27:04.705Z,37.60
2018-05-07T11:29:05.651Z,37.60
2018-05-07T11:31:06.921Z,37.00
2018-05-07T11:33:07.825Z,36.30
2018-05-07T11:35:08.782Z,35.80
2018-05-07T11:37:10.146Z,34.60
2018-05-07T11:39:11.107Z,34.60
2018-05-07T11:41:12.045Z,34.70
2018-05-07T11:43:13.006Z,34.60
2018-05-07T11:45:13.954Z,35.90
2018-05-07T11:47:15.389Z,35.80
2018-05-07T11:49:16.586Z,35.80
2018-05-07T11:51:17.555Z,36.00
2018-05-07T11:53:18.612Z,35.20
2018-05-07T11:55:26.846Z,34.40
2018-05-07T11:57:27.785Z,34.40
2018-05-07T11:59:29.721Z,35.10
2018-05-07T12:01:30.745Z,34.30
2018-05-07T12:03:32.070Z,35.20
2018-05-07T12:05:33.025Z,35.20
2018-05-07T12:07:35.554Z,35.00
2018-05-07T12:09:36.578Z,35.00
2018-05-07T12:11:37.594Z,35.30
2018-05-07T12:13:38.585Z,34.70
2018-05-07T12:15:40.841Z,35.30
2018-05-07T12:17:41.937Z,35.30
2018-05-07T12:19:42.918Z,35.70
2018-05-07T12:21:43.954Z,34.30
2018-05-07T12:23:44.914Z,33.10
2018-05-07T12:25:45.911Z,33.10
2018-05-07T12:27:46.939Z,33.30
2018-05-07T12:29:47.894Z,34.60
2018-05-07T12:31:48.865Z,34.80
2018-05-07T12:33:50.206Z,34.60
2018-05-07T12:35:51.151Z,34.60
2018-05-07T12:37:52.094Z,34.10
2018-05-07T12:39:53.050Z,34.80
2018-05-07T12:41:54.035Z,35.50
2018-05-07T12:43:54.973Z,33.80
2018-05-07T12:45:55.925Z,32.90
2018-05-07T12:47:56.864Z,33.40
2018-05-07T12:49:57.806Z,32.70
2018-05-07T12:51:58.770Z,33.50
2018-05-07T12:53:59.828Z,32.30
2018-05-07T12:56:01.150Z,30.20
2018-05-07T12:58:02.370Z,30.20
2018-05-07T13:00:03.321Z,31.50
2018-05-07T13:02:04.282Z,31.90
2018-05-07T13:04:05.690Z,33.00
2018-05-07T13:06:06.646Z,33.00
2018-05-07T13:08:08.730Z,33.50
2018-05-07T13:10:10.050Z,31.80
2018-05-07T13:12:11.018Z,31.80
2018-05-07T13:14:11.970Z,31.70
2018-05-07T13:16:12.922Z,31.30
2018-05-07T13:18:13.890Z,32.40
2018-05-07T13:20:14.830Z,31.20
2018-05-07T13:22:16.158Z,32.50
2018-05-07T13:24:17.139Z,32.60
2018-05-07T13:26:18.100Z,33.10
2018-05-07T13:28:19.045Z,32.20
2018-05-07T13:30:20.006Z,32.50
2018-05-07T13:32:20.957Z,30.60
2018-05-07T13:34:22.277Z,30.30
2018-05-07T13:36:23.232Z,30.30
2018-05-07T13:38:24.555Z,29.20
2018-05-07T13:40:25.491Z,29.20
2018-05-07T13:42:26.443Z,29.30
2018-05-07T13:44:27.767Z,29.00
2018-05-07T13:46:28.716Z,29.00
2018-05-07T13:48:30.038Z,28.80
2018-05-07T13:50:31.001Z,28.90
2018-05-07T13:52:31.939Z,29.30
2018-05-07T13:54:33.158Z,28.00
2018-05-07T13:56:34.485Z,26.80
2018-05-07T13:58:35.434Z,26.80
2018-05-07T14:00:36.745Z,27.90
2018-05-07T14:02:37.709Z,27.90
2018-05-07T14:04:38.651Z,29.70
2018-05-07T14:06:39.982Z,29.40
2018-05-07T14:08:40.938Z,29.40
2018-05-07T14:44:38.954Z,28.80
2018-05-07T14:46:39.910Z,28.70
2018-05-07T14:48:40.854Z,30.10
2018-05-07T14:50:42.066Z,29.80
2018-05-07T14:52:43.009Z,29.60
2018-05-07T14:54:43.955Z,30.40
2018-05-07T14:56:44.903Z,32.60
2018-05-07T14:58:46.256Z,33.00
2018-05-07T15:00:47.509Z,33.40
2018-05-07T15:02:48.459Z,33.40
2018-05-07T15:04:49.410Z,35.60
2018-05-07T15:06:50.368Z,35.70
2018-05-07T15:08:51.332Z,35.60
2018-05-07T15:10:52.657Z,36.90
2018-05-07T15:12:53.609Z,36.90
2018-05-07T15:14:54.918Z,38.10
2018-05-07T15:16:55.855Z,38.10
2018-05-07T15:18:56.847Z,38.40
2018-05-07T15:20:57.812Z,39.30
2018-05-07T15:22:58.769Z,39.00
2018-05-07T15:24:59.701Z,39.20
2018-05-07T15:27:00.770Z,39.70
2018-05-07T15:29:01.726Z,40.10
2018-05-07T15:31:02.673Z,39.80
2018-05-07T15:33:03.622Z,40.40
2018-05-07T15:35:04.573Z,39.70
2018-05-07T15:37:05.507Z,40.10
2018-05-07T15:39:06.564Z,40.90
2018-05-07T15:41:07.880Z,40.30
2018-05-07T15:43:08.831Z,40.30
2018-05-07T15:45:09.777Z,40.20
2018-05-07T15:47:11.098Z,40.70
2018-05-07T15:49:12.036Z,40.70
2018-05-07T15:51:13.026Z,40.80
2018-05-07T15:53:13.960Z,41.60
2018-05-07T15:55:14.943Z,41.40
2018-05-07T15:57:15.905Z,41.50
2018-05-07T15:59:16.874Z,41.50
2018-05-07T16:01:17.826Z,41.90
2018-05-07T16:03:19.160Z,41.80
2018-05-07T16:05:20.022Z,41.80
2018-05-07T16:07:21.330Z,41.30
2018-05-07T16:09:23.065Z,41.30
2018-05-07T16:11:24.050Z,41.00
2018-05-07T16:13:25.036Z,42.00
2018-05-07T16:15:26.040Z,42.00
2018-05-07T16:17:27.136Z,41.80
2018-05-07T16:19:28.681Z,42.10
2018-05-07T16:21:29.675Z,42.70
2018-05-07T16:23:31.125Z,42.90
2018-05-07T16:25:32.313Z,43.10
2018-05-07T16:27:33.249Z,43.10
2018-05-07T16:29:34.226Z,43.80
2018-05-07T16:31:35.414Z,43.70
2018-05-07T16:33:36.364Z,44.40
2018-05-07T16:35:37.331Z,44.10
2018-05-07T16:37:38.983Z,43.70
2018-05-07T16:39:44.985Z,44.20
2018-05-07T16:41:46.017Z,43.90
2018-05-07T16:43:47.020Z,44.20
2018-05-07T16:45:48.359Z,44.80
2018-05-07T16:47:49.385Z,44.80
2018-05-07T16:49:50.321Z,44.70
2018-05-07T16:51:51.427Z,44.80
2018-05-07T16:53:52.405Z,46.20
2018-05-07T16:55:53.472Z,48.00
2018-05-07T16:57:54.505Z,49.30
2018-05-07T16:59:55.483Z,49.60
2018-05-07T17:01:56.825Z,50.10
2018-05-07T17:03:58.264Z,50.60
2018-05-07T17:05:59.619Z,50.70
2018-05-07T17:08:00.975Z,50.90
2018-05-07T17:10:02.089Z,50.90
2018-05-07T17:12:03.446Z,51.20
2018-05-07T17:14:04.446Z,51.20
2018-05-07T17:16:05.813Z,51.50
2018-05-07T17:18:07.157Z,51.60
2018-05-07T17:20:08.551Z,51.60
2018-05-07T17:22:09.949Z,51.80
2018-05-07T17:24:11.322Z,51.80
2018-05-07T17:26:12.646Z,52.00
2018-05-07T17:28:13.938Z,52.00
2018-05-07T17:30:14.913Z,52.20
2018-05-07T17:32:16.266Z,52.10
2018-05-07T17:34:17.258Z,52.10
2018-05-07T17:36:18.245Z,52.50
2018-05-07T17:38:19.232Z,52.80
2018-05-07T17:40:20.194Z,53.00
2018-05-07T17:42:21.561Z,53.60
2018-05-07T17:47:15.896Z,53.60
2018-05-07T17:49:16.871Z,53.40
2018-05-07T17:51:18.216Z,53.40
2018-05-07T17:53:19.557Z,53.40
2018-05-07T17:55:21.322Z,53.60
2018-05-07T17:57:22.074Z,53.60
2018-05-07T17:59:23.058Z,53.70
2018-05-07T18:01:24.043Z,53.90
2018-05-07T18:03:25.030Z,54.10
2018-05-07T18:05:26.358Z,54.20
2018-05-07T18:07:27.333Z,55.10
2018-05-07T18:09:28.302Z,55.00
2018-05-07T18:11:29.278Z,54.80
2018-05-07T18:13:30.290Z,54.80
2018-05-07T18:15:31.270Z,55.10
2018-05-07T18:17:32.242Z,55.40
2018-05-07T18:19:33.331Z,55.60
2018-05-07T18:21:34.686Z,55.90
2018-05-07T18:23:35.664Z,55.90
2018-05-07T18:25:36.659Z,56.10
2018-05-07T18:27:37.634Z,56.20
2018-05-07T18:29:38.610Z,56.80
2018-05-07T18:31:40.345Z,56.70
2018-05-07T18:33:41.347Z,56.70
2018-05-07T18:35:42.410Z,57.20
2018-05-07T18:37:43.387Z,57.10
2018-05-07T18:39:44.406Z,57.60
2018-05-07T18:41:45.853Z,57.80
2018-05-07T18:43:47.219Z,58.00
2018-05-07T18:45:48.418Z,58.00
2018-05-07T18:47:49.399Z,57.70
2018-05-07T18:49:50.355Z,57.80
2018-05-07T18:51:51.501Z,58.10
2018-05-07T18:53:52.490Z,58.40
2018-05-07T18:55:53.475Z,58.20
2018-05-07T18:57:54.497Z,58.30
2018-05-07T19:00:02.910Z,58.30
2018-05-07T19:02:03.922Z,59.00
2018-05-07T19:04:04.950Z,59.30
2018-05-07T19:06:05.923Z,59.60
2018-05-07T19:08:06.903Z,59.80
2018-05-07T19:10:08.246Z,60.10
2018-05-07T19:12:09.598Z,60.20
2018-05-07T19:14:14.570Z,60.20
2018-05-07T19:16:20.036Z,60.40
2018-05-07T19:18:20.994Z,60.30
2018-05-07T19:20:22.344Z,60.70
2018-05-07T19:22:23.382Z,60.70
2018-05-07T19:24:24.382Z,60.80
2018-05-07T19:26:25.364Z,61.30
2018-05-07T19:28:26.354Z,61.30
2018-05-07T19:30:27.353Z,61.40
2018-05-07T19:32:28.329Z,61.20
2018-05-07T19:34:29.318Z,61.50
2018-05-07T19:36:30.307Z,61.60
2018-05-07T19:38:31.704Z,62.00
2018-05-07T19:40:32.706Z,62.00
2018-05-07T19:42:33.679Z,62.10
2018-05-07T19:44:34.715Z,62.10
2018-05-07T19:46:35.698Z,62.30
2018-05-07T19:48:37.061Z,63.00
2018-05-07T19:50:38.050Z,63.00
2018-05-07T19:52:39.026Z,63.30
2018-05-07T19:54:40.021Z,63.70
2018-05-07T19:56:41.006Z,63.90
2018-05-07T19:58:41.990Z,63.90
2018-05-07T20:00:43.001Z,64.00
2018-05-07T20:02:43.986Z,64.10
2018-05-07T20:04:45.352Z,64.30
2018-05-07T20:06:46.370Z,64.30
2018-05-07T20:08:47.711Z,64.20
2018-05-07T20:10:49.063Z,64.50
2018-05-07T20:12:50.175Z,64.50
2018-05-07T20:14:51.201Z,64.50
2018-05-07T20:16:52.119Z,64.20
2018-05-07T20:18:53.354Z,64.50
2018-05-07T20:20:54.334Z,64.30
2018-05-07T20:22:55.690Z,64.70
2018-05-07T20:24:56.762Z,64.70
2018-05-07T20:26:57.730Z,65.10
2018-05-07T20:28:58.676Z,64.90
2018-05-07T20:31:00.021Z,65.00
2018-05-07T20:33:01.354Z,65.40
2018-05-07T20:35:02.671Z,65.80
2018-05-07T20:37:04.382Z,65.80
2018-05-07T20:39:05.334Z,66.00
2018-05-07T20:41:06.265Z,66.20
2018-05-07T20:43:07.370Z,66.00
2018-05-07T20:45:08.685Z,66.70
2018-05-07T20:47:09.712Z,66.70
2018-05-07T20:49:11.023Z,66.40
2018-05-07T20:51:11.974Z,66.50
2018-05-07T20:53:12.914Z,67.00
2018-05-07T20:55:14.306Z,67.10
2018-05-07T20:57:15.633Z,67.80
2018-05-07T20:59:17.218Z,67.80
2018-05-07T21:01:18.221Z,67.80
2018-05-07T21:03:19.170Z,68.30
2018-05-07T21:05:20.562Z,68.50
2018-05-07T21:07:21.811Z,68.50
2018-05-07T21:09:23.010Z,68.50
2018-05-07T21:11:24.074Z,68.40
2018-05-07T21:13:25.034Z,68.10
2018-05-07T21:15:26.383Z,68.30
2018-05-07T21:17:27.346Z,68.30
2018-05-07T21:19:28.290Z,68.50
2018-05-07T21:21:29.262Z,68.50
2018-05-07T21:23:30.209Z,68.40
2018-05-07T21:25:31.161Z,68.80
2018-05-07T21:27:32.486Z,69.70
2018-05-07T21:29:33.450Z,69.60
2018-05-07T21:31:34.802Z,70.40
2018-05-07T21:33:35.731Z,70.40
2018-05-07T21:35:36.753Z,70.30
2018-05-07T21:37:37.657Z,70.00
2018-05-07T21:39:38.619Z,69.80
2018-05-07T21:41:39.946Z,70.40
2018-05-07T21:43:41.705Z,70.40
2018-05-07T21:45:42.921Z,71.20
2018-05-07T21:47:43.849Z,71.20
2018-05-07T21:49:44.806Z,71.60
2018-05-07T21:51:45.743Z,71.70
2018-05-07T21:53:46.690Z,71.40
2018-05-07T21:55:48.046Z,71.80
2018-05-07T21:57:49.363Z,71.30
2018-05-07T21:59:50.306Z,71.30
2018-05-07T22:01:51.617Z,71.50
2018-05-07T22:03:52.579Z,71.50
2018-05-07T22:05:53.902Z,72.20
2018-05-07T22:07:54.902Z,72.20
2018-05-07T22:09:55.794Z,72.10
2018-05-07T22:11:56.735Z,72.20
2018-05-07T22:13:58.070Z,72.70
2018-05-07T22:15:59.794Z,73.00
2018-05-07T22:18:00.731Z,73.00
2018-05-07T22:20:01.682Z,73.00
2018-05-07T22:22:02.625Z,72.90
2018-05-07T22:24:03.959Z,73.20
2018-05-07T22:26:04.918Z,73.30
2018-05-07T22:28:06.225Z,73.80
2018-05-07T22:30:07.181Z,73.80
2018-05-07T22:32:08.576Z,74.50
2018-05-07T22:34:09.430Z,74.50
2018-05-07T22:36:10.383Z,74.50
2018-05-07T22:38:11.334Z,74.50
2018-05-07T22:40:12.651Z,75.00
2018-05-07T22:42:13.606Z,75.00
2018-05-07T22:44:14.922Z,75.60
2018-05-07T22:46:15.865Z,75.60
2018-05-07T22:48:16.810Z,75.60
2018-05-07T22:50:18.130Z,75.80
2018-05-07T22:52:19.128Z,75.80
2018-05-07T22:54:20.429Z,75.70
2018-05-07T22:56:21.379Z,75.70
2018-05-07T22:58:22.334Z,76.10
2018-05-07T23:00:23.410Z,76.30
2018-05-07T23:02:24.352Z,76.40
2018-05-07T23:04:25.289Z,76.20
2018-05-07T23:06:26.234Z,76.10
2018-05-07T23:08:27.568Z,76.00
2018-05-07T23:10:28.505Z,76.00
2018-05-07T23:12:29.461Z,76.10
2018-05-07T23:14:30.769Z,76.40
2018-05-07T23:16:31.706Z,76.40
2018-05-07T23:18:32.651Z,76.20
2018-05-07T23:20:33.597Z,76.10
2018-05-07T23:22:34.904Z,76.80
2018-05-07T23:24:35.858Z,76.80
2018-05-07T23:26:36.805Z,76.90
2018-05-07T23:28:37.902Z,77.20
2018-05-07T23:30:38.833Z,77.10
2018-05-07T23:32:39.775Z,77.10
2018-05-07T23:34:40.730Z,77.20
2018-05-07T23:36:41.681Z,77.10
2018-05-07T23:38:42.996Z,77.10
2018-05-07T23:40:43.963Z,77.10
2018-05-07T23:42:45.277Z,77.40
2018-05-07T23:44:46.222Z,77.40
2018-05-07T23:46:47.162Z,77.50
2018-05-07T23:48:48.466Z,77.50
2018-05-07T23:50:49.403Z,77.50
2018-05-07T23:52:50.362Z,77.60
2018-05-07T23:54:51.305Z,77.80
2018-05-07T23:56:52.639Z,77.60
2018-05-07T23:58:53.593Z,77.50
